createdAt,value
2018-05-07T00:01:03.700Z,12.20
2018-05-07T00:03:32.348Z,12.06
2018-05-07T00:06:00.793Z,11.93
2018-05-07T00:08:29.198Z,12.00
2018-05-07T00:10:57.491Z,11.86
2018-05-07T00:13:26.499Z,11.75
2018-05-07T00:15:55.396Z,11.58
2018-05-07T00:18:23.775Z,11.41
2018-05-07T00:20:52.153Z,11.29
2018-05-07T00:23:20.448Z,11.21
2018-05-07T00:25:49.063Z,11.18
2018-05-07T00:28:18.605Z,11.25
2018-05-07T00:30:46.932Z,11.26
2018-05-07T00:33:16.581Z,11.25
2018-05-07T00:35:45.480Z,11.22
2018-05-07T00:38:13.764Z,11.13
2018-05-07T00:40:42.775Z,11.05
2018-05-07T00:43:11.065Z,11.07
2018-05-07T00:45:39.347Z,11.21
2018-05-07T00:48:07.673Z,11.13
2018-05-07T00:50:37.588Z,11.38
2018-05-07T00:53:06.810Z,11.41
2018-05-07T00:55:35.685Z,11.26
2018-05-07T00:58:03.968Z,11.46
2018-05-07T01:00:32.251Z,11.45
2018-05-07T01:03:01.125Z,11.33
2018-05-07T01:05:29.407Z,11.45
2018-05-07T01:07:57.759Z,11.29
2018-05-07T01:10:26.235Z,11.17
2018-05-07T01:12:54.698Z,11.07
2018-05-07T01:15:23.069Z,11.05
2018-05-07T01:17:51.352Z,11.14
2018-05-07T01:20:19.638Z,11.01
2018-05-07T01:22:47.938Z,10.92
2018-05-07T01:25:16.219Z,10.96
2018-05-07T01:27:45.015Z,10.88
2018-05-07T01:30:13.303Z,10.97
2018-05-07T01:32:41.626Z,10.89
2018-05-07T01:35:09.917Z,10.95
2018-05-07T01:37:38.211Z,10.90
2018-05-07T01:40:06.554Z,10.89
2018-05-07T01:42:34.834Z,10.84
2018-05-07T01:45:03.109Z,10.85
2018-05-07T01:47:31.419Z,10.89
2018-05-07T01:50:00.074Z,10.69
2018-05-07T01:52:28.354Z,10.83
2018-05-07T01:54:57.107Z,10.86
2018-05-07T01:57:25.953Z,11.03
2018-05-07T01:59:54.308Z,11.08
2018-05-07T02:02:23.285Z,11.05
2018-05-07T02:04:52.377Z,11.19
2018-05-07T02:07:21.518Z,11.31
2018-05-07T02:09:50.612Z,11.62
2018-05-07T02:12:20.529Z,11.75
2018-05-07T02:14:49.602Z,11.81
2018-05-07T02:17:19.520Z,12.01
2018-05-07T02:19:48.589Z,11.70
2018-05-07T02:22:16.991Z,11.47
2018-05-07T02:24:46.005Z,11.37
2018-05-07T02:27:15.149Z,11.00
2018-05-07T02:29:44.366Z,10.86
2018-05-07T02:32:12.647Z,10.92
2018-05-07T02:34:41.699Z,10.72
2018-05-07T02:37:10.309Z,10.84
2018-05-07T02:39:39.715Z,10.87
2018-05-07T02:42:09.627Z,10.66
2018-05-07T02:44:38.115Z,10.65
2018-05-07T02:47:06.399Z,10.78
2018-05-07T02:49:34.846Z,10.70
2018-05-07T02:52:03.179Z,10.61
2018-05-07T02:54:31.910Z,10.53
2018-05-07T02:57:00.976Z,10.42
2018-05-07T02:59:29.375Z,10.54
2018-05-07T03:01:58.290Z,10.45
2018-05-07T03:04:26.644Z,10.41
2018-05-07T03:06:55.110Z,10.39
2018-05-07T03:09:23.386Z,10.61
2018-05-07T03:11:52.251Z,10.86
2018-05-07T03:14:20.551Z,10.90
2018-05-07T03:16:48.914Z,11.44
2018-05-07T03:19:17.218Z,11.41
2018-05-07T03:21:46.543Z,11.31
2018-05-07T03:24:14.912Z,11.39
2018-05-07T03:26:43.199Z,11.38
2018-05-07T03:29:11.474Z,11.30
2018-05-07T03:31:40.322Z,11.33
2018-05-07T03:34:09.085Z,11.83
2018-05-07T03:36:38.128Z,11.82
2018-05-07T03:39:06.446Z,12.26
2018-05-07T03:41:34.731Z,12.19
2018-05-07T03:44:03.806Z,12.13
2018-05-07T03:46:32.366Z,11.90
2018-05-07T03:49:01.075Z,11.60
2018-05-07T03:51:29.738Z,11.39
2018-05-07T03:53:58.018Z,11.07
2018-05-07T03:56:26.302Z,10.83
2018-05-07T03:58:54.638Z,10.82
2018-05-07T04:01:23.315Z,10.68
2018-05-07T04:03:51.910Z,10.61
2018-05-07T04:06:20.215Z,10.47
2018-05-07T04:08:48.800Z,10.31
2018-05-07T04:11:17.656Z,10.22
2018-05-07T04:13:45.990Z,10.22
2018-05-07T04:16:31.847Z,10.19
2018-05-07T04:19:17.650Z,10.17
2018-05-07T04:22:03.415Z,10.16
2018-05-07T04:24:31.889Z,10.21
2018-05-07T04:27:00.670Z,10.20
2018-05-07T04:29:28.968Z,10.27
2018-05-07T04:31:57.273Z,10.36
2018-05-07T04:34:25.578Z,10.45
2018-05-07T04:36:54.034Z,10.75
2018-05-07T04:39:22.354Z,11.33
2018-05-07T04:41:50.630Z,11.53
2018-05-07T04:44:18.926Z,12.44
2018-05-07T04:46:47.255Z,13.55
2018-05-07T04:49:15.927Z,14.95
2018-05-07T04:51:45.205Z,15.89
2018-05-07T04:54:13.626Z,17.12
2018-05-07T04:56:42.567Z,17.14
2018-05-07T04:59:11.714Z,18.08
2018-05-07T05:01:40.331Z,18.72
2018-05-07T05:04:08.978Z,18.88
2018-05-07T05:06:38.102Z,20.03
2018-05-07T05:09:07.228Z,20.78
2018-05-07T05:11:36.438Z,20.59
2018-05-07T05:14:05.506Z,21.55
2018-05-07T05:16:34.630Z,22.17
2018-05-07T05:19:03.719Z,22.24
2018-05-07T05:21:32.695Z,21.34
2018-05-07T05:24:01.001Z,21.82
2018-05-07T05:26:31.227Z,22.21
2018-05-07T05:28:59.733Z,22.16
2018-05-07T05:31:28.746Z,21.79
2018-05-07T05:33:57.074Z,22.33
2018-05-07T05:36:25.735Z,22.51
2018-05-07T05:38:54.060Z,23.26
2018-05-07T05:41:22.739Z,23.78
2018-05-07T05:43:52.455Z,24.10
2018-05-07T05:46:20.779Z,23.39
2018-05-07T05:48:49.097Z,22.86
2018-05-07T05:51:17.936Z,23.81
2018-05-07T05:53:46.312Z,22.23
2018-05-07T05:56:14.945Z,22.63
2018-05-07T05:58:43.174Z,22.93
2018-05-07T06:01:11.623Z,22.48
2018-05-07T06:03:40.592Z,22.41
2018-05-07T06:06:08.862Z,21.93
2018-05-07T06:08:37.614Z,21.91
2018-05-07T06:11:05.967Z,21.35
2018-05-07T06:13:34.251Z,20.99
2018-05-07T06:16:02.731Z,21.14
2018-05-07T06:18:31.026Z,20.95
2018-05-07T06:20:59.305Z,22.96
2018-05-07T06:23:27.634Z,22.69
2018-05-07T06:25:55.910Z,23.64
2018-05-07T06:28:24.710Z,23.08
2018-05-07T06:30:53.075Z,21.87
2018-05-07T06:33:21.830Z,22.40
2018-05-07T06:35:50.116Z,22.93
2018-05-07T06:38:18.470Z,22.23
2018-05-07T06:40:46.864Z,20.95
2018-05-07T06:43:15.594Z,22.07
2018-05-07T06:45:44.082Z,22.70
2018-05-07T06:48:13.455Z,24.22
2018-05-07T06:50:42.423Z,23.27
2018-05-07T06:53:11.755Z,23.03
2018-05-07T06:55:40.034Z,23.99
2018-05-07T06:58:08.311Z,24.62
2018-05-07T07:00:36.651Z,23.59
2018-05-07T07:03:04.938Z,22.11
2018-05-07T07:05:33.219Z,23.27
2018-05-07T07:08:02.303Z,23.46
2018-05-07T07:10:30.535Z,22.84
2018-05-07T07:12:58.816Z,23.36
2018-05-07T07:15:27.626Z,24.47
2018-05-07T07:17:56.381Z,24.93
2018-05-07T07:20:25.883Z,24.73
2018-05-07T07:22:54.636Z,24.79
2018-05-07T07:25:22.913Z,25.91
2018-05-07T07:27:51.197Z,24.80
2018-05-07T07:30:19.542Z,26.55
2018-05-07T07:32:48.588Z,25.55
2018-05-07T07:35:17.146Z,26.05
2018-05-07T07:37:45.635Z,26.25
2018-05-07T07:40:13.906Z,24.84
2018-05-07T07:42:42.206Z,26.72
2018-05-07T07:45:10.523Z,27.68
2018-05-07T07:47:38.871Z,29.42
2018-05-07T07:50:07.453Z,27.23
2018-05-07T07:52:35.938Z,25.66
2018-05-07T07:55:04.223Z,25.35
2018-05-07T07:57:32.683Z,27.11
2018-05-07T08:00:00.998Z,26.88
2018-05-07T08:02:29.579Z,26.50
2018-05-07T08:04:57.859Z,28.09
2018-05-07T08:07:28.126Z,27.91
2018-05-07T08:09:56.420Z,28.34
2018-05-07T08:12:25.480Z,28.61
2018-05-07T08:14:54.279Z,27.10
2018-05-07T08:17:23.905Z,27.41
2018-05-07T08:19:52.607Z,27.04
2018-05-07T08:22:20.999Z,27.74
2018-05-07T08:24:49.479Z,27.74
2018-05-07T08:27:17.771Z,29.05
2018-05-07T08:29:46.067Z,30.80
2018-05-07T08:32:14.387Z,29.49
2018-05-07T08:34:42.662Z,27.39
2018-05-07T08:37:11.062Z,30.19
2018-05-07T08:39:39.943Z,31.48
2018-05-07T08:42:08.225Z,32.30
2018-05-07T08:44:36.730Z,31.00
2018-05-07T08:47:05.511Z,28.08
2018-05-07T08:49:33.798Z,28.15
2018-05-07T08:52:02.077Z,29.86
2018-05-07T08:54:30.577Z,30.54
2018-05-07T08:56:58.871Z,29.86
2018-05-07T08:59:27.150Z,30.53
2018-05-07T09:01:55.721Z,31.57
2018-05-07T09:04:24.017Z,33.74
2018-05-07T09:06:52.625Z,31.52
2018-05-07T09:09:21.211Z,28.43
2018-05-07T09:11:49.486Z,31.67
2018-05-07T09:14:17.763Z,31.72
2018-05-07T09:16:46.090Z,32.20
2018-05-07T09:19:15.133Z,31.85
2018-05-07T09:21:43.806Z,33.70
2018-05-07T09:24:12.191Z,35.63
2018-05-07T09:26:40.471Z,34.13
2018-05-07T09:29:09.570Z,32.05
2018-05-07T09:31:37.921Z,32.01
2018-05-07T09:34:06.255Z,32.38
2018-05-07T09:36:34.835Z,30.48
2018-05-07T09:39:03.154Z,32.88
2018-05-07T09:41:31.861Z,32.78
2018-05-07T09:44:01.070Z,32.79
2018-05-07T09:46:29.382Z,35.25
2018-05-07T09:48:57.692Z,35.04
2018-05-07T09:51:25.951Z,37.79
2018-05-07T09:53:54.271Z,36.17
2018-05-07T09:56:22.311Z,36.86
2018-05-07T09:58:58.320Z,35.04
2018-05-07T10:01:26.930Z,33.93
2018-05-07T10:03:55.210Z,35.86
2018-05-07T10:06:23.534Z,37.15
2018-05-07T10:08:51.819Z,36.12
2018-05-07T10:11:20.367Z,34.81
2018-05-07T10:13:48.714Z,34.71
2018-05-07T10:16:17.090Z,36.46
2018-05-07T10:18:45.375Z,35.99
2018-05-07T10:21:13.695Z,35.31
2018-05-07T10:23:42.398Z,35.94
2018-05-07T10:26:10.675Z,34.11
2018-05-07T10:28:39.767Z,35.35
2018-05-07T10:31:08.084Z,33.93
2018-05-07T10:33:36.370Z,32.12
2018-05-07T10:36:04.767Z,34.46
2018-05-07T10:38:33.744Z,35.63
2018-05-07T10:41:02.023Z,37.00
2018-05-07T10:43:30.367Z,37.26
2018-05-07T10:45:58.871Z,37.08
2018-05-07T10:48:27.150Z,38.31
2018-05-07T10:50:55.936Z,36.29
2018-05-07T10:53:24.283Z,32.48
2018-05-07T10:55:52.566Z,32.84
2018-05-07T10:58:20.886Z,34.19
2018-05-07T11:00:49.161Z,36.29
2018-05-07T11:03:17.442Z,34.76
2018-05-07T11:05:45.751Z,36.68
2018-05-07T11:08:14.570Z,34.06
2018-05-07T11:10:43.754Z,33.55
2018-05-07T11:13:12.119Z,36.03
2018-05-07T11:15:40.695Z,38.28
2018-05-07T11:18:08.982Z,36.39
2018-05-07T11:20:37.322Z,34.18
2018-05-07T11:23:06.883Z,33.82
2018-05-07T11:25:35.863Z,33.40
2018-05-07T11:28:04.467Z,36.85
2018-05-07T11:30:32.585Z,37.92
2018-05-07T11:33:00.862Z,37.03
2018-05-07T11:35:29.333Z,34.13
2018-05-07T11:37:58.393Z,35.12
2018-05-07T11:40:26.671Z,35.89
2018-05-07T11:42:55.681Z,34.93
2018-05-07T11:45:23.998Z,36.81
2018-05-07T11:47:52.274Z,36.77
2018-05-07T11:50:20.950Z,39.04
2018-05-07T11:52:49.502Z,42.07
2018-05-07T11:55:18.321Z,41.72
2018-05-07T11:57:46.626Z,37.49
2018-05-07T12:00:14.946Z,35.88
2018-05-07T12:02:43.235Z,36.49
2018-05-07T12:05:11.523Z,34.98
2018-05-07T12:07:39.857Z,37.20
2018-05-07T12:10:08.137Z,34.72
2018-05-07T12:12:36.878Z,35.78
2018-05-07T12:15:06.013Z,35.76
2018-05-07T12:17:34.342Z,36.06
2018-05-07T12:20:02.698Z,35.50
2018-05-07T12:22:31.010Z,33.78
2018-05-07T12:24:59.355Z,35.61
2018-05-07T12:27:27.638Z,35.61
2018-05-07T12:29:56.497Z,35.08
2018-05-07T12:32:25.599Z,36.47
2018-05-07T12:34:53.879Z,36.24
2018-05-07T12:37:22.206Z,34.48
2018-05-07T12:39:50.479Z,33.93
2018-05-07T12:42:18.750Z,34.88
2018-05-07T12:44:47.066Z,35.14
2018-05-07T12:47:15.531Z,32.92
2018-05-07T12:49:43.806Z,35.37
2018-05-07T12:52:12.119Z,33.80
2018-05-07T12:54:40.666Z,37.39
2018-05-07T12:57:08.952Z,35.12
2018-05-07T12:59:37.710Z,36.53
2018-05-07T13:02:05.995Z,35.39
2018-05-07T13:04:34.284Z,35.72
2018-05-07T13:07:03.113Z,35.18
2018-05-07T13:09:31.390Z,36.27
2018-05-07T13:11:59.670Z,37.79
2018-05-07T13:14:28.591Z,36.97
2018-05-07T13:16:56.879Z,36.05
2018-05-07T13:19:25.302Z,35.60
2018-05-07T13:21:54.406Z,32.68
2018-05-07T13:24:22.684Z,34.04
2018-05-07T13:26:51.336Z,34.87
2018-05-07T13:29:20.058Z,33.83
2018-05-07T13:31:48.816Z,32.99
2018-05-07T13:34:18.098Z,34.07
2018-05-07T13:36:46.423Z,34.58
2018-05-07T13:39:14.718Z,34.24
2018-05-07T13:41:43.104Z,34.61
2018-05-07T13:44:11.415Z,35.08
2018-05-07T13:46:40.293Z,35.14
2018-05-07T13:49:09.370Z,36.18
2018-05-07T13:51:38.467Z,34.81
2018-05-07T13:54:06.923Z,34.67
2018-05-07T13:56:35.247Z,34.99
2018-05-07T13:59:03.523Z,34.64
2018-05-07T14:01:31.798Z,34.65
2018-05-07T14:04:00.670Z,34.93
2018-05-07T14:06:29.803Z,35.25
2018-05-07T14:08:59.883Z,35.19
2018-05-07T14:11:28.778Z,35.40
2018-05-07T14:13:56.469Z,35.85
2018-05-07T14:16:24.793Z,33.70
2018-05-07T14:18:53.078Z,35.88
2018-05-07T14:21:21.354Z,35.64
2018-05-07T14:23:50.220Z,35.03
2018-05-07T14:26:18.589Z,34.66
2018-05-07T14:28:46.888Z,35.67
2018-05-07T14:31:15.202Z,36.38
2018-05-07T14:33:43.487Z,35.42
2018-05-07T14:36:11.767Z,34.07
2018-05-07T14:38:40.121Z,35.19
2018-05-07T14:41:08.380Z,36.49
2018-05-07T14:43:36.688Z,34.03
2018-05-07T14:46:06.478Z,34.01
2018-05-07T14:48:35.107Z,34.10
2018-05-07T14:51:03.390Z,34.42
2018-05-07T14:53:31.715Z,33.19
2018-05-07T14:55:59.992Z,34.21
2018-05-07T14:58:29.786Z,35.08
2018-05-07T15:00:59.200Z,34.25
2018-05-07T15:03:27.906Z,34.50
2018-05-07T15:05:56.190Z,34.23
2018-05-07T15:08:24.491Z,33.91
2018-05-07T15:10:52.775Z,33.34
2018-05-07T15:13:21.166Z,32.58
2018-05-07T15:15:49.378Z,32.64
2018-05-07T15:18:17.654Z,32.66
2018-05-07T15:20:46.855Z,30.99
2018-05-07T15:23:15.443Z,31.85
2018-05-07T15:25:43.680Z,31.04
2018-05-07T15:28:12.626Z,32.32
2018-05-07T15:30:41.493Z,32.78
2018-05-07T15:33:09.775Z,33.44
2018-05-07T15:35:38.059Z,32.20
2018-05-07T15:38:07.515Z,31.39
2018-05-07T15:40:36.727Z,31.42
2018-05-07T15:43:05.770Z,31.48
2018-05-07T15:45:34.758Z,31.67
2018-05-07T15:48:03.043Z,32.52
2018-05-07T15:50:32.130Z,31.24
2018-05-07T15:53:01.319Z,32.48
2018-05-07T15:55:29.598Z,32.05
2018-05-07T15:57:57.982Z,30.68
2018-05-07T16:00:27.737Z,30.87
2018-05-07T16:02:56.153Z,30.58
2018-05-07T16:05:24.691Z,29.90
2018-05-07T16:07:53.927Z,30.57
2018-05-07T16:10:23.018Z,30.83
2018-05-07T16:12:51.762Z,30.48
2018-05-07T16:15:20.396Z,30.83
2018-05-07T16:17:49.058Z,30.62
2018-05-07T16:20:17.730Z,29.86
2018-05-07T16:22:46.475Z,30.16
2018-05-07T16:25:15.130Z,29.38
2018-05-07T16:27:43.409Z,30.13
2018-05-07T16:30:12.458Z,30.14
2018-05-07T16:32:40.779Z,30.18
2018-05-07T16:35:09.180Z,30.06
2018-05-07T16:37:37.509Z,29.93
2018-05-07T16:40:05.811Z,29.06
2018-05-07T16:42:34.858Z,28.55
2018-05-07T16:45:03.753Z,28.86
2018-05-07T16:47:32.804Z,28.68
2018-05-07T16:50:04.529Z,28.51
2018-05-07T16:52:34.379Z,28.63
2018-05-07T16:55:03.349Z,28.24
2018-05-07T17:00:31.586Z,27.74
2018-05-07T17:03:01.372Z,27.39
2018-05-07T17:05:29.647Z,27.01
2018-05-07T17:07:58.243Z,26.83
2018-05-07T17:10:27.543Z,26.76
2018-05-07T17:12:56.078Z,26.72
2018-05-07T17:15:24.358Z,26.40
2018-05-07T17:17:52.676Z,25.92
2018-05-07T17:20:20.956Z,26.09
2018-05-07T17:22:50.139Z,26.24
2018-05-07T17:25:18.455Z,25.60
2018-05-07T17:27:46.813Z,25.21
2018-05-07T17:30:15.091Z,25.30
2018-05-07T17:32:43.676Z,25.26
2018-05-07T17:35:11.958Z,25.31
2018-05-07T17:37:41.095Z,25.39
2018-05-07T17:40:10.208Z,24.98
2018-05-07T17:42:38.470Z,24.98
2018-05-07T17:58:47.619Z,24.05
2018-05-07T18:01:16.512Z,23.96
2018-05-07T18:03:44.906Z,23.78
2018-05-07T18:06:14.003Z,23.64
2018-05-07T18:08:42.910Z,23.55
2018-05-07T18:11:11.193Z,23.17
2018-05-07T18:13:39.886Z,22.75
2018-05-07T18:16:09.575Z,22.74
2018-05-07T18:18:38.114Z,22.41
2018-05-07T18:21:06.395Z,22.20
2018-05-07T18:23:35.427Z,22.08
2018-05-07T18:26:03.758Z,21.93
2018-05-07T18:28:32.795Z,22.00
2018-05-07T18:31:01.086Z,21.68
2018-05-07T18:33:30.244Z,21.68
2018-05-07T18:35:58.707Z,21.51
2018-05-07T18:38:26.999Z,21.70
2018-05-07T18:40:55.310Z,21.50
2018-05-07T18:43:24.099Z,21.23
2018-05-07T18:45:53.188Z,21.16
2018-05-07T18:48:21.514Z,20.86
2018-05-07T18:50:49.818Z,20.81
2018-05-07T18:53:18.415Z,20.63
2018-05-07T18:55:47.007Z,20.60
2018-05-07T18:58:16.608Z,20.41
2018-05-07T19:00:45.230Z,20.42
2018-05-07T19:03:14.457Z,20.45
2018-05-07T19:05:43.095Z,20.14
2018-05-07T19:08:12.271Z,19.83
2018-05-07T19:10:41.702Z,19.47
2018-05-07T19:13:09.979Z,19.21
2018-05-07T19:15:38.706Z,19.14
2018-05-07T19:18:07.546Z,18.87
2018-05-07T19:20:35.846Z,18.74
2018-05-07T19:23:04.415Z,18.82
2018-05-07T19:25:33.485Z,18.79
2018-05-07T19:28:02.338Z,18.62
2018-05-07T19:30:30.623Z,18.65
2018-05-07T19:32:58.906Z,18.50
2018-05-07T19:35:27.722Z,18.39
2018-05-07T19:37:55.998Z,18.20
2018-05-07T19:40:24.678Z,18.17
2018-05-07T19:42:53.558Z,18.13
2018-05-07T19:45:22.671Z,17.85
2018-05-07T19:47:51.596Z,17.83
2018-05-07T19:50:21.703Z,17.72
2018-05-07T19:52:50.286Z,17.57
2018-05-07T19:55:20.711Z,17.39
2018-05-07T19:57:48.999Z,17.15
2018-05-07T20:00:18.094Z,16.91
2018-05-07T20:02:46.426Z,16.88
2018-05-07T20:05:15.032Z,16.95
2018-05-07T20:07:43.845Z,17.00
2018-05-07T20:10:12.675Z,16.93
2018-05-07T20:12:41.045Z,16.72
2018-05-07T20:15:09.537Z,16.49
2018-05-07T20:17:37.820Z,16.41
2018-05-07T20:20:06.205Z,16.36
2018-05-07T20:22:34.420Z,16.24
2018-05-07T20:25:02.859Z,16.06
2018-05-07T20:27:31.182Z,15.84
2018-05-07T20:29:59.466Z,15.73
2018-05-07T20:32:28.833Z,15.69
2018-05-07T20:34:58.871Z,15.61
2018-05-07T20:37:28.247Z,15.55
2018-05-07T20:39:56.614Z,15.52
2018-05-07T20:42:25.326Z,15.49
2018-05-07T20:44:54.490Z,15.49
2018-05-07T20:47:22.826Z,15.61
2018-05-07T20:49:51.462Z,15.40
2018-05-07T20:52:20.297Z,15.31
2018-05-07T20:54:48.854Z,15.15
2018-05-07T20:57:17.134Z,15.16
2018-05-07T20:59:45.690Z,15.09
2018-05-07T21:02:14.929Z,14.98
2018-05-07T21:04:43.847Z,15.01
2018-05-07T21:07:13.575Z,15.03
2018-05-07T21:09:42.526Z,14.92
2018-05-07T21:12:11.579Z,14.98
2018-05-07T21:14:39.904Z,14.91
2018-05-07T21:17:08.991Z,14.63
2018-05-07T21:19:37.332Z,14.52
2018-05-07T21:22:05.612Z,14.41
2018-05-07T21:24:33.980Z,14.41
2018-05-07T21:27:02.764Z,14.33
2018-05-07T21:29:31.159Z,14.39
2018-05-07T21:32:00.163Z,14.48
2018-05-07T21:34:28.448Z,14.36
2018-05-07T21:36:56.854Z,14.25
2018-05-07T21:39:25.178Z,14.14
2018-05-07T21:41:53.458Z,13.98
2018-05-07T21:44:21.819Z,13.79
2018-05-07T21:46:50.198Z,13.69
2018-05-07T21:49:19.143Z,13.75
2018-05-07T21:51:48.423Z,13.67
2018-05-07T21:54:17.940Z,13.61
2018-05-07T21:56:46.227Z,13.43
2018-05-07T21:59:14.703Z,13.37
2018-05-07T22:01:44.307Z,13.54
2018-05-07T22:04:14.442Z,13.47
2018-05-07T22:06:43.535Z,13.27
2018-05-07T22:09:12.407Z,13.22
2018-05-07T22:11:40.952Z,13.14
2018-05-07T22:14:10.149Z,13.12
2018-05-07T22:16:39.194Z,13.07
2018-05-07T22:19:07.466Z,13.04
2018-05-07T22:21:36.283Z,13.00
2018-05-07T22:24:04.565Z,13.12
2018-05-07T22:26:32.955Z,13.03
2018-05-07T22:29:01.558Z,12.95
2018-05-07T22:31:29.839Z,12.85
2018-05-07T22:33:59.282Z,12.83
2018-05-07T22:36:27.606Z,12.79
2018-05-07T22:38:56.322Z,12.68
2018-05-07T22:41:24.594Z,12.75
2018-05-07T22:43:52.891Z,12.58
2018-05-07T22:46:21.225Z,12.63
2018-05-07T22:48:49.493Z,12.58
2018-05-07T22:51:18.346Z,12.50
2018-05-07T22:53:46.643Z,12.46
2018-05-07T22:56:14.922Z,12.35
2018-05-07T22:58:43.222Z,12.44
2018-05-07T23:01:11.791Z,12.48
2018-05-07T23:03:40.068Z,12.44
2018-05-07T23:06:09.535Z,12.32
2018-05-07T23:08:37.810Z,12.31
2018-05-07T23:11:06.322Z,12.16
2018-05-07T23:13:34.603Z,12.18
2018-05-07T23:16:03.931Z,12.28
2018-05-07T23:18:32.215Z,12.31
2018-05-07T23:21:00.501Z,12.24
2018-05-07T23:23:28.778Z,12.16
2018-05-07T23:25:57.270Z,12.02
2018-05-07T23:28:25.542Z,11.94
2018-05-07T23:30:54.469Z,11.81
2018-05-07T23:33:22.887Z,11.90
2018-05-07T23:35:51.166Z,11.79
2018-05-07T23:38:20.134Z,11.95
2018-05-07T23:40:48.475Z,11.92
2018-05-07T23:43:17.426Z,11.90
2018-05-07T23:45:45.706Z,11.72
2018-05-07T23:48:14.010Z,11.71
2018-05-07T23:50:42.322Z,11.62
2018-05-07T23:53:11.119Z,11.35
2018-05-07T23:55:39.438Z,11.29
2018-05-07T23:58:07.755Z,11.16
